sensor_id;sensor_type;location;lat;lon;timestamp;pressure;altitude;pressure_sealevel;temperature;humidity
36378;BME280;22402;42.746;23.606;2022-07-23T00:01:54;93784.75;;;22.85;47.07
36378;BME280;22402;42.746;23.606;2022-07-23T00:04:19;93791.28;;;22.83;47.06
36378;BME280;22402;42.746;23.606;2022-07-23T00:06:44;93797.41;;;22.83;47.07
36378;BME280;22402;42.746;23.606;2022-07-23T00:09:10;93778.88;;;22.70;47.11
36378;BME280;22402;42.746;23.606;2022-07-23T00:11:35;93783.53;;;22.74;46.94
36378;BME280;22402;42.746;23.606;2022-07-23T00:14:01;93806.66;;;22.74;47.27
36378;BME280;22402;42.746;23.606;2022-07-23T00:16:26;93802.38;;;22.73;46.97
36378;BME280;22402;42.746;23.606;2022-07-23T00:18:51;93795.25;;;22.67;46.90
36378;BME280;22402;42.746;23.606;2022-07-23T00:21:17;93804.84;;;22.68;46.98
36378;BME280;22402;42.746;23.606;2022-07-23T00:23:42;93794.44;;;22.60;47.03
36378;BME280;22402;42.746;23.606;2022-07-23T00:26:08;93805.06;;;22.60;47.48
36378;BME280;22402;42.746;23.606;2022-07-23T00:28:33;93793.03;;;22.50;47.57
36378;BME280;22402;42.746;23.606;2022-07-23T00:30:59;93782.63;;;22.42;47.35
36378;BME280;22402;42.746;23.606;2022-07-23T00:33:24;93791.22;;;22.44;47.21
36378;BME280;22402;42.746;23.606;2022-07-23T00:35:49;93795.91;;;22.42;47.75
36378;BME280;22402;42.746;23.606;2022-07-23T00:38:15;93793.06;;;22.37;47.33
36378;BME280;22402;42.746;23.606;2022-07-23T00:40:40;93792.88;;;22.32;47.66
36378;BME280;22402;42.746;23.606;2022-07-23T00:43:06;93790.22;;;22.32;47.34
36378;BME280;22402;42.746;23.606;2022-07-23T00:45:32;93786.34;;;22.28;47.33
36378;BME280;22402;42.746;23.606;2022-07-23T00:47:58;93781.84;;;22.22;47.86
36378;BME280;22402;42.746;23.606;2022-07-23T00:50:24;93762.44;;;22.15;47.80
36378;BME280;22402;42.746;23.606;2022-07-23T00:52:50;93776.94;;;22.19;48.16
36378;BME280;22402;42.746;23.606;2022-07-23T00:55:16;93779.84;;;22.17;47.88
36378;BME280;22402;42.746;23.606;2022-07-23T00:57:42;93781.25;;;22.13;47.89
36378;BME280;22402;42.746;23.606;2022-07-23T01:00:10;93783.06;;;22.13;47.63
36378;BME280;22402;42.746;23.606;2022-07-23T01:02:37;93779.00;;;22.10;47.94
36378;BME280;22402;42.746;23.606;2022-07-23T01:05:03;93775.34;;;22.04;47.82
36378;BME280;22402;42.746;23.606;2022-07-23T01:07:31;93782.25;;;22.05;48.10
36378;BME280;22402;42.746;23.606;2022-07-23T01:09:58;93778.41;;;22.01;48.23
36378;BME280;22402;42.746;23.606;2022-07-23T01:12:23;93777.97;;;21.98;48.29
36378;BME280;22402;42.746;23.606;2022-07-23T01:14:59;93776.56;;;22.02;48.29
36378;BME280;22402;42.746;23.606;2022-07-23T01:17:25;93769.63;;;21.94;48.28
36378;BME280;22402;42.746;23.606;2022-07-23T01:19:50;93764.53;;;21.93;48.41
36378;BME280;22402;42.746;23.606;2022-07-23T01:22:18;93777.16;;;21.97;48.37
36378;BME280;22402;42.746;23.606;2022-07-23T01:24:44;93774.09;;;21.94;48.81
36378;BME280;22402;42.746;23.606;2022-07-23T01:27:09;93769.03;;;21.92;48.96
36378;BME280;22402;42.746;23.606;2022-07-23T01:29:34;93754.31;;;21.96;48.73
36378;BME280;22402;42.746;23.606;2022-07-23T01:32:00;93763.88;;;21.97;48.96
36378;BME280;22402;42.746;23.606;2022-07-23T01:34:26;93750.44;;;21.85;48.85
36378;BME280;22402;42.746;23.606;2022-07-23T01:36:52;93755.75;;;21.92;49.06
36378;BME280;22402;42.746;23.606;2022-07-23T01:39:17;93763.09;;;21.77;50.08
36378;BME280;22402;42.746;23.606;2022-07-23T01:41:43;93776.38;;;21.83;50.00
36378;BME280;22402;42.746;23.606;2022-07-23T01:44:08;93770.44;;;21.88;49.91
36378;BME280;22402;42.746;23.606;2022-07-23T01:46:34;93767.38;;;21.78;50.76
36378;BME280;22402;42.746;23.606;2022-07-23T01:48:59;93768.81;;;21.87;50.26
36378;BME280;22402;42.746;23.606;2022-07-23T01:51:24;93771.06;;;21.90;50.03
36378;BME280;22402;42.746;23.606;2022-07-23T01:53:50;93765.13;;;21.95;50.06
36378;BME280;22402;42.746;23.606;2022-07-23T01:56:15;93770.63;;;22.00;49.95
36378;BME280;22402;42.746;23.606;2022-07-23T01:58:41;93765.72;;;21.97;50.71
36378;BME280;22402;42.746;23.606;2022-07-23T02:01:06;93775.53;;;22.03;50.23
36378;BME280;22402;42.746;23.606;2022-07-23T02:03:31;93766.34;;;22.05;50.29
36378;BME280;22402;42.746;23.606;2022-07-23T02:05:57;93764.72;;;22.04;50.17
36378;BME280;22402;42.746;23.606;2022-07-23T02:08:25;93771.84;;;22.11;50.28
36378;BME280;22402;42.746;23.606;2022-07-23T02:10:50;93766.13;;;22.14;50.01
36378;BME280;22402;42.746;23.606;2022-07-23T02:13:16;93771.22;;;22.15;50.21
36378;BME280;22402;42.746;23.606;2022-07-23T02:15:41;93772.44;;;22.13;50.20
36378;BME280;22402;42.746;23.606;2022-07-23T02:18:06;93777.75;;;22.13;50.23
36378;BME280;22402;42.746;23.606;2022-07-23T02:20:32;93776.75;;;22.14;50.31
36378;BME280;22402;42.746;23.606;2022-07-23T02:22:57;93771.44;;;22.14;50.64
36378;BME280;22402;42.746;23.606;2022-07-23T02:25:22;93771.44;;;22.14;50.98
36378;BME280;22402;42.746;23.606;2022-07-23T02:27:48;93777.34;;;22.16;50.64
36378;BME280;22402;42.746;23.606;2022-07-23T02:30:13;93782.06;;;22.14;50.74
36378;BME280;22402;42.746;23.606;2022-07-23T02:32:39;93782.88;;;22.14;50.89
36378;BME280;22402;42.746;23.606;2022-07-23T02:35:05;93754.94;;;21.98;51.02
36378;BME280;22402;42.746;23.606;2022-07-23T02:37:31;93783.88;;;22.06;51.15
36378;BME280;22402;42.746;23.606;2022-07-23T02:39:56;93780.03;;;22.02;51.51
36378;BME280;22402;42.746;23.606;2022-07-23T02:42:22;93780.41;;;22.06;51.68
36378;BME280;22402;42.746;23.606;2022-07-23T02:44:47;93778.81;;;21.98;51.54
36378;BME280;22402;42.746;23.606;2022-07-23T02:47:13;93772.69;;;21.91;51.76
36378;BME280;22402;42.746;23.606;2022-07-23T02:49:38;93785.75;;;21.93;52.27
36378;BME280;22402;42.746;23.606;2022-07-23T02:52:04;93795.13;;;21.89;52.61
36378;BME280;22402;42.746;23.606;2022-07-23T02:54:29;93791.06;;;21.79;52.95
36378;BME280;22402;42.746;23.606;2022-07-23T02:56:54;93790.47;;;21.77;52.85
36378;BME280;22402;42.746;23.606;2022-07-23T02:59:20;93790.84;;;21.68;52.93
36378;BME280;22402;42.746;23.606;2022-07-23T03:01:45;93791.25;;;21.65;53.51
36378;BME280;22402;42.746;23.606;2022-07-23T03:04:12;93798.81;;;21.54;54.10
36378;BME280;22402;42.746;23.606;2022-07-23T03:06:37;93799.22;;;21.45;54.57
36378;BME280;22402;42.746;23.606;2022-07-23T03:09:04;93791.81;;;21.27;54.64
36378;BME280;22402;42.746;23.606;2022-07-23T03:11:29;93797.72;;;21.29;55.17
36378;BME280;22402;42.746;23.606;2022-07-23T03:13:55;93805.66;;;21.15;55.17
36378;BME280;22402;42.746;23.606;2022-07-23T03:16:21;93803.16;;;21.07;56.10
36378;BME280;22402;42.746;23.606;2022-07-23T03:18:46;93804.38;;;21.05;56.03
36378;BME280;22402;42.746;23.606;2022-07-23T03:21:11;93810.28;;;21.00;55.58
36378;BME280;22402;42.746;23.606;2022-07-23T03:23:37;93805.59;;;21.02;55.42
36378;BME280;22402;42.746;23.606;2022-07-23T03:26:02;93800.69;;;20.99;55.67
36378;BME280;22402;42.746;23.606;2022-07-23T03:28:27;93803.56;;;20.98;55.88
36378;BME280;22402;42.746;23.606;2022-07-23T03:30:53;93813.75;;;20.94;56.08
36378;BME280;22402;42.746;23.606;2022-07-23T03:33:20;93809.59;;;20.85;56.07
36378;BME280;22402;42.746;23.606;2022-07-23T03:35:46;93807.97;;;20.77;56.22
36378;BME280;22402;42.746;23.606;2022-07-23T03:38:12;93812.44;;;20.77;56.59
36378;BME280;22402;42.746;23.606;2022-07-23T03:40:38;93804.06;;;20.73;56.78
36378;BME280;22402;42.746;23.606;2022-07-23T03:43:03;93804.44;;;20.70;56.75
36378;BME280;22402;42.746;23.606;2022-07-23T03:45:29;93813.84;;;20.73;56.71
36378;BME280;22402;42.746;23.606;2022-07-23T03:47:54;93806.69;;;20.73;56.79
36378;BME280;22402;42.746;23.606;2022-07-23T03:50:20;93807.53;;;20.74;56.61
36378;BME280;22402;42.746;23.606;2022-07-23T03:52:46;93802.84;;;20.76;56.87
36378;BME280;22402;42.746;23.606;2022-07-23T03:55:11;93808.78;;;20.78;57.01
36378;BME280;22402;42.746;23.606;2022-07-23T03:57:37;93806.34;;;20.83;57.15
36378;BME280;22402;42.746;23.606;2022-07-23T04:00:04;93809.22;;;20.88;57.01
36378;BME280;22402;42.746;23.606;2022-07-23T04:02:30;93807.59;;;20.93;57.32
36378;BME280;22402;42.746;23.606;2022-07-23T04:04:55;93814.34;;;20.96;58.15
36378;BME280;22402;42.746;23.606;2022-07-23T04:07:21;93812.09;;;21.00;59.04
36378;BME280;22402;42.746;23.606;2022-07-23T04:09:46;93808.88;;;21.04;58.35
36378;BME280;22402;42.746;23.606;2022-07-23T04:12:11;93827.25;;;21.12;59.22
36378;BME280;22402;42.746;23.606;2022-07-23T04:14:37;93815.22;;;21.16;59.82
36378;BME280;22402;42.746;23.606;2022-07-23T04:17:02;93825.66;;;21.25;59.48
36378;BME280;22402;42.746;23.606;2022-07-23T04:19:28;93828.13;;;21.33;58.24
36378;BME280;22402;42.746;23.606;2022-07-23T04:21:53;93826.94;;;21.42;57.71
36378;BME280;22402;42.746;23.606;2022-07-23T04:24:19;93821.03;;;21.53;57.09
36378;BME280;22402;42.746;23.606;2022-07-23T04:26:45;93827.41;;;21.66;57.33
36378;BME280;22402;42.746;23.606;2022-07-23T04:29:10;93826.19;;;21.75;56.25
36378;BME280;22402;42.746;23.606;2022-07-23T04:31:36;93832.69;;;21.85;54.65
36378;BME280;22402;42.746;23.606;2022-07-23T04:34:01;93831.06;;;21.98;54.56
36378;BME280;22402;42.746;23.606;2022-07-23T04:36:26;93807.41;;;21.96;55.05
36378;BME280;22402;42.746;23.606;2022-07-23T04:38:52;93823.34;;;22.23;53.93
36378;BME280;22402;42.746;23.606;2022-07-23T04:41:18;93830.69;;;22.34;54.14
36378;BME280;22402;42.746;23.606;2022-07-23T04:43:43;93829.84;;;22.47;53.97
36378;BME280;22402;42.746;23.606;2022-07-23T04:46:08;93840.84;;;22.64;54.25
36378;BME280;22402;42.746;23.606;2022-07-23T04:48:34;93831.19;;;22.76;53.56
36378;BME280;22402;42.746;23.606;2022-07-23T04:50:59;93839.53;;;22.86;53.43
36378;BME280;22402;42.746;23.606;2022-07-23T04:53:24;93830.13;;;22.97;52.94
36378;BME280;22402;42.746;23.606;2022-07-23T04:55:50;93830.09;;;23.04;53.08
36378;BME280;22402;42.746;23.606;2022-07-23T04:58:15;93837.75;;;23.25;53.23
36378;BME280;22402;42.746;23.606;2022-07-23T05:00:41;93844.59;;;23.46;52.81
36378;BME280;22402;42.746;23.606;2022-07-23T05:03:06;93836.31;;;23.61;52.01
36378;BME280;22402;42.746;23.606;2022-07-23T05:05:32;93844.00;;;23.82;52.14
36378;BME280;22402;42.746;23.606;2022-07-23T05:07:57;93841.00;;;23.97;51.11
36378;BME280;22402;42.746;23.606;2022-07-23T05:10:22;93842.78;;;24.10;50.54
36378;BME280;22402;42.746;23.606;2022-07-23T05:12:48;93838.38;;;24.22;50.51
36378;BME280;22402;42.746;23.606;2022-07-23T05:15:45;93833.88;;;24.41;50.11
36378;BME280;22402;42.746;23.606;2022-07-23T05:18:11;93842.22;;;24.51;49.02
36378;BME280;22402;42.746;23.606;2022-07-23T05:20:37;93834.38;;;24.56;49.19
36378;BME280;22402;42.746;23.606;2022-07-23T05:23:02;93845.53;;;24.72;49.20
36378;BME280;22402;42.746;23.606;2022-07-23T05:25:28;93831.28;;;24.78;48.82
36378;BME280;22402;42.746;23.606;2022-07-23T05:27:53;93843.81;;;24.96;48.96
36378;BME280;22402;42.746;23.606;2022-07-23T05:30:18;93844.84;;;25.13;48.39
36378;BME280;22402;42.746;23.606;2022-07-23T05:32:44;93844.47;;;25.28;48.38
36378;BME280;22402;42.746;23.606;2022-07-23T05:35:09;93848.22;;;25.39;48.55
36378;BME280;22402;42.746;23.606;2022-07-23T05:37:35;93856.94;;;25.46;47.88
36378;BME280;22402;42.746;23.606;2022-07-23T05:40:05;93858.75;;;25.52;47.75
36378;BME280;22402;42.746;23.606;2022-07-23T05:42:31;93857.44;;;25.55;47.76
36378;BME280;22402;42.746;23.606;2022-07-23T05:44:57;93851.59;;;25.64;48.37
36378;BME280;22402;42.746;23.606;2022-07-23T05:47:22;93858.00;;;25.75;48.99
36378;BME280;22402;42.746;23.606;2022-07-23T05:49:48;93856.44;;;25.86;48.69
36378;BME280;22402;42.746;23.606;2022-07-23T05:52:13;93855.88;;;25.96;48.05
36378;BME280;22402;42.746;23.606;2022-07-23T05:54:38;93854.75;;;26.03;47.65
36378;BME280;22402;42.746;23.606;2022-07-23T05:57:04;93859.88;;;26.17;47.82
36378;BME280;22402;42.746;23.606;2022-07-23T05:59:29;93857.56;;;26.32;47.19
36378;BME280;22402;42.746;23.606;2022-07-23T06:01:55;93854.59;;;26.52;47.40
36378;BME280;22402;42.746;23.606;2022-07-23T06:04:20;93860.53;;;26.66;46.02
36378;BME280;22402;42.746;23.606;2022-07-23T06:06:46;93859.34;;;26.73;45.48
36378;BME280;22402;42.746;23.606;2022-07-23T06:09:11;93857.38;;;26.80;45.67
36378;BME280;22402;42.746;23.606;2022-07-23T06:11:36;93851.53;;;26.95;46.33
36378;BME280;22402;42.746;23.606;2022-07-23T06:14:02;93861.28;;;27.13;45.75
36378;BME280;22402;42.746;23.606;2022-07-23T06:16:27;93856.41;;;27.22;44.74
36378;BME280;22402;42.746;23.606;2022-07-23T06:18:52;93849.38;;;27.33;44.66
36378;BME280;22402;42.746;23.606;2022-07-23T06:21:18;93848.69;;;27.37;44.06
36378;BME280;22402;42.746;23.606;2022-07-23T06:23:43;93856.19;;;27.52;44.41
36378;BME280;22402;42.746;23.606;2022-07-23T06:26:08;93856.38;;;27.62;43.66
36378;BME280;22402;42.746;23.606;2022-07-23T06:28:34;93849.09;;;27.75;42.55
36378;BME280;22402;42.746;23.606;2022-07-23T06:30:59;93860.84;;;27.85;42.28
36378;BME280;22402;42.746;23.606;2022-07-23T06:33:24;93848.09;;;27.92;41.74
36378;BME280;22402;42.746;23.606;2022-07-23T06:35:50;93848.84;;;28.05;42.90
36378;BME280;22402;42.746;23.606;2022-07-23T06:38:15;93846.94;;;28.17;41.99
36378;BME280;22402;42.746;23.606;2022-07-23T06:40:40;93848.56;;;28.35;42.51
36378;BME280;22402;42.746;23.606;2022-07-23T06:43:06;93845.34;;;28.50;41.62
36378;BME280;22402;42.746;23.606;2022-07-23T06:45:31;93845.47;;;28.60;41.23
36378;BME280;22402;42.746;23.606;2022-07-23T06:47:56;93844.81;;;28.70;41.27
36378;BME280;22402;42.746;23.606;2022-07-23T06:50:22;93845.28;;;28.83;41.61
36378;BME280;22402;42.746;23.606;2022-07-23T06:52:47;93832.28;;;28.75;40.52
36378;BME280;22402;42.746;23.606;2022-07-23T06:55:12;93846.53;;;28.98;40.32
36378;BME280;22402;42.746;23.606;2022-07-23T06:57:38;93841.63;;;29.12;40.11
36378;BME280;22402;42.746;23.606;2022-07-23T07:00:04;93839.97;;;29.27;39.70
36378;BME280;22402;42.746;23.606;2022-07-23T07:02:29;93843.34;;;29.40;39.38
36378;BME280;22402;42.746;23.606;2022-07-23T07:04:54;93834.22;;;29.41;38.43
36378;BME280;22402;42.746;23.606;2022-07-23T07:07:20;93843.44;;;29.50;38.70
36378;BME280;22402;42.746;23.606;2022-07-23T07:09:45;93839.75;;;29.56;37.68
36378;BME280;22402;42.746;23.606;2022-07-23T07:12:10;93837.81;;;29.73;37.56
36378;BME280;22402;42.746;23.606;2022-07-23T07:14:35;93831.22;;;29.86;39.06
36378;BME280;22402;42.746;23.606;2022-07-23T07:17:01;93832.19;;;30.02;37.70
36378;BME280;22402;42.746;23.606;2022-07-23T07:19:26;93818.75;;;30.02;38.59
36378;BME280;22402;42.746;23.606;2022-07-23T07:21:51;93827.44;;;30.14;38.10
36378;BME280;22402;42.746;23.606;2022-07-23T07:24:17;93830.81;;;30.27;37.51
36378;BME280;22402;42.746;23.606;2022-07-23T07:26:42;93833.25;;;30.28;37.51
36378;BME280;22402;42.746;23.606;2022-07-23T07:29:07;93836.38;;;30.20;36.86
36378;BME280;22402;42.746;23.606;2022-07-23T07:31:32;93826.38;;;30.15;37.35
36378;BME280;22402;42.746;23.606;2022-07-23T07:33:58;93821.78;;;30.11;37.58
36378;BME280;22402;42.746;23.606;2022-07-23T07:36:23;93822.38;;;30.18;37.89
36378;BME280;22402;42.746;23.606;2022-07-23T07:38:49;93807.47;;;30.05;37.97
36378;BME280;22402;42.746;23.606;2022-07-23T07:41:15;93832.84;;;30.14;38.10
36378;BME280;22402;42.746;23.606;2022-07-23T07:43:40;93823.25;;;30.24;37.40
36378;BME280;22402;42.746;23.606;2022-07-23T07:46:05;93825.75;;;30.35;37.63
36378;BME280;22402;42.746;23.606;2022-07-23T07:48:31;93820.22;;;30.47;36.90
36378;BME280;22402;42.746;23.606;2022-07-23T07:50:56;93814.59;;;30.54;37.06
36378;BME280;22402;42.746;23.606;2022-07-23T07:53:21;93820.06;;;30.64;35.99
36378;BME280;22402;42.746;23.606;2022-07-23T07:55:47;93810.63;;;30.61;36.33
36378;BME280;22402;42.746;23.606;2022-07-23T07:58:12;93820.59;;;30.66;36.77
36378;BME280;22402;42.746;23.606;2022-07-23T08:00:37;93818.19;;;30.70;36.68
36378;BME280;22402;42.746;23.606;2022-07-23T08:03:04;93802.59;;;30.72;36.34
36378;BME280;22402;42.746;23.606;2022-07-23T08:05:30;93812.19;;;30.95;36.74
36378;BME280;22402;42.746;23.606;2022-07-23T08:07:56;93807.88;;;30.99;36.60
36378;BME280;22402;42.746;23.606;2022-07-23T08:10:23;93806.00;;;30.99;36.57
36378;BME280;22402;42.746;23.606;2022-07-23T08:12:50;93805.47;;;31.02;36.89
36378;BME280;22402;42.746;23.606;2022-07-23T08:15:17;93802.84;;;31.13;37.64
36378;BME280;22402;42.746;23.606;2022-07-23T08:17:44;93804.75;;;31.22;35.65
36378;BME280;22402;42.746;23.606;2022-07-23T08:20:12;93803.19;;;31.31;35.86
36378;BME280;22402;42.746;23.606;2022-07-23T08:22:45;93798.41;;;31.39;35.98
36378;BME280;22402;42.746;23.606;2022-07-23T08:25:10;93801.41;;;31.58;36.54
36378;BME280;22402;42.746;23.606;2022-07-23T08:27:36;93805.72;;;31.64;34.91
36378;BME280;22402;42.746;23.606;2022-07-23T08:30:01;93804.94;;;31.78;34.81
36378;BME280;22402;42.746;23.606;2022-07-23T08:32:26;93811.19;;;31.94;34.28
36378;BME280;22402;42.746;23.606;2022-07-23T08:34:52;93802.59;;;32.08;34.15
36378;BME280;22402;42.746;23.606;2022-07-23T08:37:17;93809.91;;;32.28;33.29
36378;BME280;22402;42.746;23.606;2022-07-23T08:39:42;93807.44;;;32.36;33.96
36378;BME280;22402;42.746;23.606;2022-07-23T08:42:08;93799.38;;;32.47;33.66
36378;BME280;22402;42.746;23.606;2022-07-23T08:44:35;93791.28;;;32.52;33.81
36378;BME280;22402;42.746;23.606;2022-07-23T08:47:00;93806.91;;;32.65;32.88
36378;BME280;22402;42.746;23.606;2022-07-23T08:49:26;93810.69;;;32.64;32.63
36378;BME280;22402;42.746;23.606;2022-07-23T08:51:53;93797.19;;;32.59;32.46
36378;BME280;22402;42.746;23.606;2022-07-23T08:54:21;93802.56;;;32.69;32.30
36378;BME280;22402;42.746;23.606;2022-07-23T08:56:46;93797.97;;;32.75;33.41
36378;BME280;22402;42.746;23.606;2022-07-23T08:59:12;93799.06;;;32.79;31.97
36378;BME280;22402;42.746;23.606;2022-07-23T09:01:37;93791.50;;;32.71;31.45
36378;BME280;22402;42.746;23.606;2022-07-23T09:04:03;93794.47;;;32.79;31.26
36378;BME280;22402;42.746;23.606;2022-07-23T09:06:28;93798.75;;;32.85;31.37
36378;BME280;22402;42.746;23.606;2022-07-23T09:08:53;93796.63;;;32.87;31.25
36378;BME280;22402;42.746;23.606;2022-07-23T09:11:19;93791.47;;;32.96;32.21
36378;BME280;22402;42.746;23.606;2022-07-23T09:13:48;93803.34;;;33.05;30.98
36378;BME280;22402;42.746;23.606;2022-07-23T09:16:14;93790.63;;;33.11;30.57
36378;BME280;22402;42.746;23.606;2022-07-23T09:18:45;93782.22;;;33.23;29.65
36378;BME280;22402;42.746;23.606;2022-07-23T09:21:21;93782.94;;;33.39;30.92
36378;BME280;22402;42.746;23.606;2022-07-23T09:23:56;93779.63;;;33.57;32.00
36378;BME280;22402;42.746;23.606;2022-07-23T09:31:35;93778.88;;;34.30;28.59
36378;BME280;22402;42.746;23.606;2022-07-23T09:36:38;93777.06;;;34.49;27.73
36378;BME280;22402;42.746;23.606;2022-07-23T09:39:05;93777.47;;;34.67;28.71
36378;BME280;22402;42.746;23.606;2022-07-23T09:41:36;93779.09;;;34.92;28.02
36378;BME280;22402;42.746;23.606;2022-07-23T09:44:13;93771.81;;;35.17;28.20
36378;BME280;22402;42.746;23.606;2022-07-23T09:46:39;93771.25;;;35.38;27.33
36378;BME280;22402;42.746;23.606;2022-07-23T09:49:17;93765.59;;;35.59;26.69
36378;BME280;22402;42.746;23.606;2022-07-23T09:51:49;93774.25;;;35.80;26.24
36378;BME280;22402;42.746;23.606;2022-07-23T09:56:49;93763.75;;;36.11;26.56
36378;BME280;22402;42.746;23.606;2022-07-23T09:59:16;93764.34;;;36.27;24.95
36378;BME280;22402;42.746;23.606;2022-07-23T10:01:42;93756.53;;;36.39;25.50
36378;BME280;22402;42.746;23.606;2022-07-23T10:04:08;93757.41;;;36.54;23.73
36378;BME280;22402;42.746;23.606;2022-07-23T10:06:33;93743.03;;;36.67;23.68
36378;BME280;22402;42.746;23.606;2022-07-23T10:08:59;93746.94;;;36.88;23.16
36378;BME280;22402;42.746;23.606;2022-07-23T10:11:27;93761.28;;;37.08;23.06
36378;BME280;22402;42.746;23.606;2022-07-23T10:13:53;93747.00;;;37.16;23.21
36378;BME280;22402;42.746;23.606;2022-07-23T10:16:19;93740.03;;;37.37;23.46
36378;BME280;22402;42.746;23.606;2022-07-23T10:18:45;93744.19;;;37.49;22.13
36378;BME280;22402;42.746;23.606;2022-07-23T10:21:10;93749.47;;;37.54;22.93
36378;BME280;22402;42.746;23.606;2022-07-23T10:23:41;93745.13;;;37.67;23.63
36378;BME280;22402;42.746;23.606;2022-07-23T10:26:24;93730.22;;;37.64;23.71
36378;BME280;22402;42.746;23.606;2022-07-23T10:29:12;93731.81;;;37.79;23.96
36378;BME280;22402;42.746;23.606;2022-07-23T10:31:52;93733.94;;;38.04;22.68
36378;BME280;22402;42.746;23.606;2022-07-23T10:36:55;93724.97;;;38.26;22.88
36378;BME280;22402;42.746;23.606;2022-07-23T10:39:27;93722.22;;;38.49;23.09
36378;BME280;22402;42.746;23.606;2022-07-23T10:42:07;93721.06;;;38.72;22.89
36378;BME280;22402;42.746;23.606;2022-07-23T10:44:39;93727.13;;;38.92;21.66
36378;BME280;22402;42.746;23.606;2022-07-23T10:47:04;93721.06;;;39.04;21.86
36378;BME280;22402;42.746;23.606;2022-07-23T10:49:31;93720.47;;;39.15;21.87
36378;BME280;22402;42.746;23.606;2022-07-23T10:52:17;93722.47;;;39.41;20.79
36378;BME280;22402;42.746;23.606;2022-07-23T10:57:49;93708.03;;;39.49;21.32
36378;BME280;22402;42.746;23.606;2022-07-23T11:00:18;93701.38;;;39.15;22.00
36378;BME280;22402;42.746;23.606;2022-07-23T11:02:46;93704.72;;;38.72;22.04
36378;BME280;22402;42.746;23.606;2022-07-23T11:05:18;93700.19;;;38.59;21.13
36378;BME280;22402;42.746;23.606;2022-07-23T11:10:41;93696.50;;;38.64;22.05
36378;BME280;22402;42.746;23.606;2022-07-23T11:16:22;93688.84;;;38.97;21.98
36378;BME280;22402;42.746;23.606;2022-07-23T11:34:35;93669.47;;;40.46;21.50
36378;BME280;22402;42.746;23.606;2022-07-23T11:37:05;93668.31;;;40.65;21.23
36378;BME280;22402;42.746;23.606;2022-07-23T11:39:32;93668.91;;;40.79;19.90
36378;BME280;22402;42.746;23.606;2022-07-23T11:41:59;93672.72;;;40.87;20.44
36378;BME280;22402;42.746;23.606;2022-07-23T11:44:32;93664.94;;;40.97;21.26
36378;BME280;22402;42.746;23.606;2022-07-23T11:47:04;93665.06;;;41.10;20.02
36378;BME280;22402;42.746;23.606;2022-07-23T11:49:30;93663.56;;;41.21;19.84
36378;BME280;22402;42.746;23.606;2022-07-23T11:52:09;93664.28;;;41.09;19.28
36378;BME280;22402;42.746;23.606;2022-07-23T11:54:37;93650.72;;;41.13;20.19
36378;BME280;22402;42.746;23.606;2022-07-23T11:57:11;93658.44;;;41.11;19.70
36378;BME280;22402;42.746;23.606;2022-07-23T11:59:38;93666.25;;;40.91;20.63
36378;BME280;22402;42.746;23.606;2022-07-23T12:02:05;93668.97;;;40.62;21.06
36378;BME280;22402;42.746;23.606;2022-07-23T12:04:48;93656.06;;;40.71;19.81
36378;BME280;22402;42.746;23.606;2022-07-23T12:07:36;93647.31;;;40.86;21.08
36378;BME280;22402;42.746;23.606;2022-07-23T12:10:09;93639.78;;;41.13;19.73
36378;BME280;22402;42.746;23.606;2022-07-23T12:12:37;93642.53;;;41.13;20.09
36378;BME280;22402;42.746;23.606;2022-07-23T12:15:03;93646.44;;;41.03;20.51
36378;BME280;22402;42.746;23.606;2022-07-23T12:17:32;93646.94;;;40.96;21.29
36378;BME280;22402;42.746;23.606;2022-07-23T12:19:58;93652.72;;;40.57;21.02
36378;BME280;22402;42.746;23.606;2022-07-23T12:22:25;93648.34;;;40.26;21.91
36378;BME280;22402;42.746;23.606;2022-07-23T12:27:23;93641.72;;;40.27;24.61
36378;BME280;22402;42.746;23.606;2022-07-23T12:29:49;93639.31;;;40.34;22.60
36378;BME280;22402;42.746;23.606;2022-07-23T12:32:26;93644.31;;;40.15;21.71
36378;BME280;22402;42.746;23.606;2022-07-23T12:35:06;93632.00;;;39.91;21.68
36378;BME280;22402;42.746;23.606;2022-07-23T12:37:34;93638.22;;;40.00;23.89
36378;BME280;22402;42.746;23.606;2022-07-23T12:40:20;93636.34;;;39.92;20.90
36378;BME280;22402;42.746;23.606;2022-07-23T12:42:47;93629.28;;;39.39;19.78
36378;BME280;22402;42.746;23.606;2022-07-23T12:45:12;93630.97;;;39.00;20.79
36378;BME280;22402;42.746;23.606;2022-07-23T12:50:40;93627.81;;;38.36;21.15
36378;BME280;22402;42.746;23.606;2022-07-23T12:53:18;93624.88;;;38.23;21.79
36378;BME280;22402;42.746;23.606;2022-07-23T12:55:45;93633.78;;;37.93;21.76
36378;BME280;22402;42.746;23.606;2022-07-23T12:58:16;93627.63;;;37.78;21.91
36378;BME280;22402;42.746;23.606;2022-07-23T13:01:09;93620.88;;;37.53;23.31
36378;BME280;22402;42.746;23.606;2022-07-23T13:03:39;93623.34;;;37.27;22.53
36378;BME280;22402;42.746;23.606;2022-07-23T13:06:09;93622.19;;;37.06;23.80
36378;BME280;22402;42.746;23.606;2022-07-23T13:08:37;93614.69;;;36.89;24.13
36378;BME280;22402;42.746;23.606;2022-07-23T13:11:05;93620.63;;;36.77;24.00
36378;BME280;22402;42.746;23.606;2022-07-23T13:13:33;93616.00;;;36.64;23.16
36378;BME280;22402;42.746;23.606;2022-07-23T13:15:59;93608.16;;;36.62;22.77
36378;BME280;22402;42.746;23.606;2022-07-23T13:18:25;93611.16;;;36.75;22.27
36378;BME280;22402;42.746;23.606;2022-07-23T13:20:51;93610.97;;;36.71;22.25
36378;BME280;22402;42.746;23.606;2022-07-23T13:23:18;93613.00;;;36.65;22.03
36378;BME280;22402;42.746;23.606;2022-07-23T13:25:44;93616.69;;;36.56;22.47
36378;BME280;22402;42.746;23.606;2022-07-23T13:28:09;93604.00;;;36.37;22.02
36378;BME280;22402;42.746;23.606;2022-07-23T13:30:35;93628.63;;;36.27;22.34
36378;BME280;22402;42.746;23.606;2022-07-23T13:33:03;93618.34;;;36.10;22.57